This is the latest recevied weather packets stored in our database for station/object 7M1JBF-11. If no packets are shown the sender has not sent any weather packets the latest 10 day(s).
| Time | Temp. | Humidity | Pressure | Rain* | Wind** | Luminosity | Snow |
|---|---|---|---|---|---|---|---|
| 1777607064 | 15° C | 100% | 998.1 hPa | 36.32 mm | - | - | - |
| 1777605862 | 14.44° C | 100% | 999.6 hPa | 35.81 mm | - | - | - |
| 1777605263 | 14.44° C | 100% | 999.9 hPa | 35.81 mm | - | - | - |
| 1777604659 | 14.44° C | 100% | 1000.3 hPa | 35.81 mm | - | - | - |
| 1777604058 | 14.44° C | 100% | 1000.8 hPa | 35.05 mm | - | - | - |
| 1777603456 | 14.44° C | 100% | 1001.2 hPa | 34.54 mm | - | - | - |
| 1777602855 | 14.44° C | 100% | 1001.6 hPa | 34.54 mm | - | - | - |
| 1777602253 | 14.44° C | 100% | 1001.6 hPa | 34.54 mm | - | - | - |
| 1777601652 | 13.89° C | 100% | 1001.7 hPa | 34.29 mm | - | - | - |
| 1777601051 | 13.89° C | 100% | 1002.2 hPa | 34.04 mm | - | - | - |
| 1777587220 | 12.22° C | 100% | 1009.1 hPa | 11.43 mm | - | - | - |
| 1777584213 | 12.22° C | 100% | 1010.3 hPa | 7.87 mm | - | - | - |
| 1777583010 | 12.22° C | 100% | 1010.7 hPa | 7.87 mm | - | - | - |
| 1777582409 | 12.22° C | 100% | 1010.8 hPa | 7.87 mm | - | - | - |
| 1777581206 | 11.67° C | 100% | 1011.2 hPa | 7.87 mm | - | - | - |
| 1777575794 | 12.22° C | 100% | 1014.1 hPa | 4.57 mm | - | - | - |
| 1777569179 | 12.22° C | 100% | 1015.3 hPa | 2.03 mm | - | - | - |
| 1777559557 | 13.33° C | 100% | 1018.6 hPa | 0 mm | - | - | - |
| 1777555949 | 14.44° C | 100% | 1019.3 hPa | 0 mm | - | - | - |
| 1777555347 | 14.44° C | 100% | 1019.4 hPa | 0 mm | - | - | - |
| 1777554746 | 14.44° C | 100% | 1019.7 hPa | 0 mm | - | - | - |
| 1777554145 | 14.44° C | 100% | 1019.7 hPa | 0 mm | - | - | - |
| 1777551739 | 14.44° C | 100% | 1019.7 hPa | 0 mm | - | - | - |
| 1777548126 | 15° C | 100% | 1020.5 hPa | 0 mm | - | - | - |
| 1777546322 | 15.56° C | 100% | 1020.3 hPa | 0 mm | - | - | - |
* Rain since midnight (hover to see other rain measurements)
** Current wind speed in m/s (hover to see current wind gust speed)